Green Garnet — 3FEH6 — position and weather

sailwx.info

Track history (hours):
 
Tides and Currents Weather Stations Pressure Air Temp Water Temp Dewpoint Dewpoint Depression Visibility Wind Speed Wind Dir Waves Ship Positions

Green Garnet

Last reported at 2016-May-05 20:25 UTC. Time now 2016-May-26 14:36 UTC.
Position N 31°12' E 122°08'.
Warning: this ship's position is 20 days out of date.

Length 209 m; draft 7.9 m.

Type: Cargo ship. MMSI: 356345000.

Date/timePositionNaut miles runAvg speedWind from/ knotsBaromVisibWave heightAir tempDewpointWater temp
2016-May-05 20:25N 31°12' E 122°08'1415.1
2016-May-05 19:29N 31°16' E 121°52'1413.5
2016-May-05 18:26N 31°22' E 121°37'910.5
2016-May-05 17:33N 31°27' E 121°28'1111.2
2016-May-05 16:33N 31°34' E 121°18'1110.5
2016-May-05 15:33N 31°42' E 121°09'1110.8
2016-May-05 14:30N 31°47' E 120°57'1313.1
2016-May-05 13:30N 31°59' E 120°50'1211.7
2016-May-05 12:30N 31°60' E 120°37'1312.7
2016-May-05 11:30N 31°60' E 120°22'8 0.3
2016-May-04 09:32N 31°56' E 120°14'0 0.2
2016-May-04 08:13N 31°56' E 120°14'0 0.0
2016-May-04 02:24N 31°56' E 120°14'0 0.0
2016-May-03 23:30N 31°56' E 120°14'0 0.0
2016-May-03 19:31N 31°56' E 120°14'0 0.0
2016-May-03 17:25N 31°56' E 120°14'  
Track history (hours):
 
Tides and Currents Weather Stations Pressure Air Temp Water Temp Dewpoint Dewpoint Depression Visibility Wind Speed Wind Dir Waves Ship Positions

Green Garnet

Last reported at 2016-May-05 20:25 UTC. Time now 2016-May-26 14:36 UTC.
Position N 31°12' E 122°08'.
Warning: this ship's position is 20 days out of date.

Length 209 m; draft 7.9 m.

Type: Cargo ship. MMSI: 356345000.

Date/timePositionNaut miles runAvg speedWind from/ knotsBaromVisibWave heightAir tempDewpointWater temp
2016-May-05 20:25N 31°12' E 122°08'1415.1
2016-May-05 19:29N 31°16' E 121°52'1413.5
2016-May-05 18:26N 31°22' E 121°37'910.5
2016-May-05 17:33N 31°27' E 121°28'1111.2
2016-May-05 16:33N 31°34' E 121°18'1110.5
2016-May-05 15:33N 31°42' E 121°09'1110.8
2016-May-05 14:30N 31°47' E 120°57'1313.1
2016-May-05 13:30N 31°59' E 120°50'1211.7
2016-May-05 12:30N 31°60' E 120°37'1312.7
2016-May-05 11:30N 31°60' E 120°22'8 0.3
2016-May-04 09:32N 31°56' E 120°14'0 0.2
2016-May-04 08:13N 31°56' E 120°14'0 0.0
2016-May-04 02:24N 31°56' E 120°14'0 0.0
2016-May-03 23:30N 31°56' E 120°14'0 0.0
2016-May-03 19:31N 31°56' E 120°14'0 0.0
2016-May-03 17:25N 31°56' E 120°14'  

Dump ship's entire track history